Southern Lily — 9VJK4 — position and weather

sailwx.info

Track history (hours):
 
Tides and Currents Weather Stations Pressure Air Temp Water Temp Dewpoint Dewpoint Depression Visibility Wind Speed Wind Dir Waves Ship Positions

Southern Lily

Last reported at 2016-May-03 17:30 UTC. Time now 2016-May-03 18:19 UTC.
Position S 36°51' E 174°47'.

Length 146 m; draft 5.7 m.

Type: Cargo ship. MMSI: 565050000.

Date/timePositionNaut miles runAvg speedWind from/ knotsBaromVisibWave heightAir tempDewpointWater temp
2016-May-03 17:30S 36°51' E 174°47'0 0.0
2016-May-03 16:24S 36°51' E 174°47'0 0.0
2016-May-03 15:30S 36°51' E 174°47'0 0.0
2016-May-03 14:24S 36°51' E 174°47'0 0.0
2016-May-03 13:30S 36°51' E 174°47'0 0.0
2016-May-03 12:30S 36°51' E 174°47'0 0.0
2016-May-03 11:30S 36°51' E 174°47'0 0.0
2016-May-03 10:30S 36°51' E 174°47'0 0.0
2016-May-03 09:18S 36°51' E 174°47'0 0.0
2016-May-03 08:24S 36°51' E 174°47'1 0.9
2016-May-03 07:33S 36°50' E 174°48'8 8.4
2016-May-03 06:34S 36°43' E 174°52'9 8.8
2016-May-03 05:33S 36°36' E 174°58'9 9.2
2016-May-03 04:33S 36°26' E 174°60'10 9.6
2016-May-03 03:33S 36°17' E 174°58'  
Track history (hours):
 
Tides and Currents Weather Stations Pressure Air Temp Water Temp Dewpoint Dewpoint Depression Visibility Wind Speed Wind Dir Waves Ship Positions

Southern Lily

Last reported at 2016-May-03 17:30 UTC. Time now 2016-May-03 18:19 UTC.
Position S 36°51' E 174°47'.

Length 146 m; draft 5.7 m.

Type: Cargo ship. MMSI: 565050000.

Date/timePositionNaut miles runAvg speedWind from/ knotsBaromVisibWave heightAir tempDewpointWater temp
2016-May-03 17:30S 36°51' E 174°47'0 0.0
2016-May-03 16:24S 36°51' E 174°47'0 0.0
2016-May-03 15:30S 36°51' E 174°47'0 0.0
2016-May-03 14:24S 36°51' E 174°47'0 0.0
2016-May-03 13:30S 36°51' E 174°47'0 0.0
2016-May-03 12:30S 36°51' E 174°47'0 0.0
2016-May-03 11:30S 36°51' E 174°47'0 0.0
2016-May-03 10:30S 36°51' E 174°47'0 0.0
2016-May-03 09:18S 36°51' E 174°47'0 0.0
2016-May-03 08:24S 36°51' E 174°47'1 0.9
2016-May-03 07:33S 36°50' E 174°48'8 8.4
2016-May-03 06:34S 36°43' E 174°52'9 8.8
2016-May-03 05:33S 36°36' E 174°58'9 9.2
2016-May-03 04:33S 36°26' E 174°60'10 9.6
2016-May-03 03:33S 36°17' E 174°58'  

Dump ship's entire track history